sensor_id;sensor_type;location;lat;lon;timestamp;P1;durP1;ratioP1;P2;durP2;ratioP2
53710;SDS011;39605;52.704;6.752;2023-12-07T00:02:16;9.00;;;8.10;;
53710;SDS011;39605;52.704;6.752;2023-12-07T00:04:42;9.35;;;8.55;;
53710;SDS011;39605;52.704;6.752;2023-12-07T00:07:08;9.18;;;8.27;;
53710;SDS011;39605;52.704;6.752;2023-12-07T00:09:34;9.80;;;8.30;;
53710;SDS011;39605;52.704;6.752;2023-12-07T00:12:00;10.45;;;9.18;;
53710;SDS011;39605;52.704;6.752;2023-12-07T00:14:26;9.98;;;8.90;;
53710;SDS011;39605;52.704;6.752;2023-12-07T00:16:52;11.27;;;9.00;;
53710;SDS011;39605;52.704;6.752;2023-12-07T00:19:19;10.82;;;8.65;;
53710;SDS011;39605;52.704;6.752;2023-12-07T00:21:45;13.18;;;9.68;;
53710;SDS011;39605;52.704;6.752;2023-12-07T00:24:11;9.82;;;8.93;;
53710;SDS011;39605;52.704;6.752;2023-12-07T00:26:37;11.65;;;9.70;;
53710;SDS011;39605;52.704;6.752;2023-12-07T00:29:03;11.18;;;10.05;;
53710;SDS011;39605;52.704;6.752;2023-12-07T00:31:29;13.32;;;8.95;;
53710;SDS011;39605;52.704;6.752;2023-12-07T00:33:55;9.95;;;8.98;;
53710;SDS011;39605;52.704;6.752;2023-12-07T00:36:21;10.02;;;9.07;;
53710;SDS011;39605;52.704;6.752;2023-12-07T00:38:47;12.20;;;9.63;;
53710;SDS011;39605;52.704;6.752;2023-12-07T00:41:13;11.45;;;9.80;;
53710;SDS011;39605;52.704;6.752;2023-12-07T00:43:39;13.02;;;9.90;;
53710;SDS011;39605;52.704;6.752;2023-12-07T00:46:09;15.45;;;10.52;;
53710;SDS011;39605;52.704;6.752;2023-12-07T00:48:35;9.93;;;8.93;;
53710;SDS011;39605;52.704;6.752;2023-12-07T00:51:01;11.23;;;9.93;;
53710;SDS011;39605;52.704;6.752;2023-12-07T00:53:27;12.15;;;10.60;;
53710;SDS011;39605;52.704;6.752;2023-12-07T00:55:53;11.05;;;9.45;;
53710;SDS011;39605;52.704;6.752;2023-12-07T00:58:19;11.07;;;9.70;;
53710;SDS011;39605;52.704;6.752;2023-12-07T01:00:46;10.95;;;9.85;;
53710;SDS011;39605;52.704;6.752;2023-12-07T01:03:12;11.10;;;9.98;;
53710;SDS011;39605;52.704;6.752;2023-12-07T01:05:38;10.95;;;9.80;;
53710;SDS011;39605;52.704;6.752;2023-12-07T01:08:04;12.43;;;10.23;;
53710;SDS011;39605;52.704;6.752;2023-12-07T01:10:30;13.35;;;10.90;;
53710;SDS011;39605;52.704;6.752;2023-12-07T01:12:57;12.18;;;10.98;;
53710;SDS011;39605;52.704;6.752;2023-12-07T01:15:23;12.13;;;10.63;;
53710;SDS011;39605;52.704;6.752;2023-12-07T01:17:49;11.60;;;10.52;;
53710;SDS011;39605;52.704;6.752;2023-12-07T01:20:15;12.55;;;11.20;;
53710;SDS011;39605;52.704;6.752;2023-12-07T01:22:42;16.92;;;10.90;;
53710;SDS011;39605;52.704;6.752;2023-12-07T01:25:08;11.70;;;10.18;;
53710;SDS011;39605;52.704;6.752;2023-12-07T01:27:34;12.63;;;11.35;;
53710;SDS011;39605;52.704;6.752;2023-12-07T01:30:00;14.02;;;11.27;;
53710;SDS011;39605;52.704;6.752;2023-12-07T01:32:28;13.75;;;11.77;;
53710;SDS011;39605;52.704;6.752;2023-12-07T01:34:54;14.40;;;11.70;;
53710;SDS011;39605;52.704;6.752;2023-12-07T01:37:20;12.93;;;11.63;;
53710;SDS011;39605;52.704;6.752;2023-12-07T01:39:46;15.57;;;12.38;;
53710;SDS011;39605;52.704;6.752;2023-12-07T01:42:12;13.57;;;11.73;;
53710;SDS011;39605;52.704;6.752;2023-12-07T01:44:38;13.50;;;12.10;;
53710;SDS011;39605;52.704;6.752;2023-12-07T01:47:05;14.13;;;11.98;;
53710;SDS011;39605;52.704;6.752;2023-12-07T01:49:33;15.30;;;12.30;;
53710;SDS011;39605;52.704;6.752;2023-12-07T01:51:59;15.15;;;11.88;;
53710;SDS011;39605;52.704;6.752;2023-12-07T01:54:26;17.33;;;13.57;;
53710;SDS011;39605;52.704;6.752;2023-12-07T01:56:52;16.60;;;13.32;;
53710;SDS011;39605;52.704;6.752;2023-12-07T01:59:18;18.23;;;13.35;;
53710;SDS011;39605;52.704;6.752;2023-12-07T02:01:44;18.15;;;13.23;;
53710;SDS011;39605;52.704;6.752;2023-12-07T02:04:10;18.00;;;13.18;;
53710;SDS011;39605;52.704;6.752;2023-12-07T02:06:36;15.55;;;13.82;;
53710;SDS011;39605;52.704;6.752;2023-12-07T02:09:02;17.90;;;14.80;;
53710;SDS011;39605;52.704;6.752;2023-12-07T02:11:28;20.23;;;15.32;;
53710;SDS011;39605;52.704;6.752;2023-12-07T02:13:54;17.27;;;14.57;;
53710;SDS011;39605;52.704;6.752;2023-12-07T02:16:39;17.92;;;14.63;;
53710;SDS011;39605;52.704;6.752;2023-12-07T02:21:56;19.13;;;15.27;;
53710;SDS011;39605;52.704;6.752;2023-12-07T02:24:24;18.75;;;14.70;;
53710;SDS011;39605;52.704;6.752;2023-12-07T02:26:51;16.75;;;14.27;;
53710;SDS011;39605;52.704;6.752;2023-12-07T02:29:17;18.33;;;14.52;;
53710;SDS011;39605;52.704;6.752;2023-12-07T02:31:43;17.83;;;14.48;;
53710;SDS011;39605;52.704;6.752;2023-12-07T02:34:09;24.45;;;14.65;;
53710;SDS011;39605;52.704;6.752;2023-12-07T02:36:35;18.52;;;14.90;;
53710;SDS011;39605;52.704;6.752;2023-12-07T02:39:02;18.55;;;15.07;;
53710;SDS011;39605;52.704;6.752;2023-12-07T02:41:32;16.55;;;14.25;;
53710;SDS011;39605;52.704;6.752;2023-12-07T02:43:58;21.77;;;15.48;;
53710;SDS011;39605;52.704;6.752;2023-12-07T02:46:25;18.15;;;15.05;;
53710;SDS011;39605;52.704;6.752;2023-12-07T02:48:51;21.63;;;15.27;;
53710;SDS011;39605;52.704;6.752;2023-12-07T02:51:17;18.38;;;15.18;;
53710;SDS011;39605;52.704;6.752;2023-12-07T02:53:43;19.27;;;15.95;;
53710;SDS011;39605;52.704;6.752;2023-12-07T02:56:09;18.77;;;15.57;;
53710;SDS011;39605;52.704;6.752;2023-12-07T02:58:35;16.77;;;14.27;;
53710;SDS011;39605;52.704;6.752;2023-12-07T03:01:01;16.77;;;14.45;;
53710;SDS011;39605;52.704;6.752;2023-12-07T03:03:27;18.45;;;14.57;;
53710;SDS011;39605;52.704;6.752;2023-12-07T03:05:53;17.15;;;14.82;;
53710;SDS011;39605;52.704;6.752;2023-12-07T03:08:19;18.08;;;14.93;;
53710;SDS011;39605;52.704;6.752;2023-12-07T03:10:45;21.45;;;16.23;;
53710;SDS011;39605;52.704;6.752;2023-12-07T03:13:11;18.48;;;15.05;;
53710;SDS011;39605;52.704;6.752;2023-12-07T03:15:37;18.65;;;15.88;;
53710;SDS011;39605;52.704;6.752;2023-12-07T03:18:04;20.38;;;14.95;;
53710;SDS011;39605;52.704;6.752;2023-12-07T03:20:30;23.20;;;16.77;;
53710;SDS011;39605;52.704;6.752;2023-12-07T03:22:56;18.02;;;15.32;;
53710;SDS011;39605;52.704;6.752;2023-12-07T03:25:22;21.95;;;17.27;;
53710;SDS011;39605;52.704;6.752;2023-12-07T03:27:48;18.08;;;15.35;;
53710;SDS011;39605;52.704;6.752;2023-12-07T03:30:14;22.33;;;16.77;;
53710;SDS011;39605;52.704;6.752;2023-12-07T03:32:41;19.20;;;15.95;;
53710;SDS011;39605;52.704;6.752;2023-12-07T03:35:07;18.55;;;15.20;;
53710;SDS011;39605;52.704;6.752;2023-12-07T03:37:33;21.60;;;16.40;;
53710;SDS011;39605;52.704;6.752;2023-12-07T03:39:59;18.85;;;16.02;;
53710;SDS011;39605;52.704;6.752;2023-12-07T03:42:25;18.95;;;15.90;;
53710;SDS011;39605;52.704;6.752;2023-12-07T03:44:51;21.90;;;16.23;;
53710;SDS011;39605;52.704;6.752;2023-12-07T03:47:17;20.27;;;15.55;;
53710;SDS011;39605;52.704;6.752;2023-12-07T03:49:44;22.35;;;18.40;;
53710;SDS011;39605;52.704;6.752;2023-12-07T03:52:10;20.65;;;16.77;;
53710;SDS011;39605;52.704;6.752;2023-12-07T03:54:36;21.30;;;16.27;;
53710;SDS011;39605;52.704;6.752;2023-12-07T03:57:02;21.48;;;17.60;;
53710;SDS011;39605;52.704;6.752;2023-12-07T03:59:29;24.48;;;18.23;;
53710;SDS011;39605;52.704;6.752;2023-12-07T04:01:55;25.08;;;18.48;;
53710;SDS011;39605;52.704;6.752;2023-12-07T04:04:21;25.20;;;17.63;;
53710;SDS011;39605;52.704;6.752;2023-12-07T04:06:47;21.80;;;17.40;;
53710;SDS011;39605;52.704;6.752;2023-12-07T04:09:14;21.63;;;17.23;;
53710;SDS011;39605;52.704;6.752;2023-12-07T04:11:40;22.60;;;17.27;;
53710;SDS011;39605;52.704;6.752;2023-12-07T04:14:06;23.00;;;17.65;;
53710;SDS011;39605;52.704;6.752;2023-12-07T04:16:32;21.40;;;16.55;;
53710;SDS011;39605;52.704;6.752;2023-12-07T04:18:58;23.60;;;17.63;;
53710;SDS011;39605;52.704;6.752;2023-12-07T04:21:24;26.92;;;16.83;;
53710;SDS011;39605;52.704;6.752;2023-12-07T04:23:50;19.30;;;15.57;;
53710;SDS011;39605;52.704;6.752;2023-12-07T04:26:16;24.00;;;16.88;;
53710;SDS011;39605;52.704;6.752;2023-12-07T04:28:42;23.85;;;16.90;;
53710;SDS011;39605;52.704;6.752;2023-12-07T04:31:08;30.42;;;17.75;;
53710;SDS011;39605;52.704;6.752;2023-12-07T04:33:35;19.42;;;16.27;;
53710;SDS011;39605;52.704;6.752;2023-12-07T04:36:01;21.00;;;16.52;;
53710;SDS011;39605;52.704;6.752;2023-12-07T04:38:29;21.48;;;16.10;;
53710;SDS011;39605;52.704;6.752;2023-12-07T04:40:55;21.80;;;16.40;;
53710;SDS011;39605;52.704;6.752;2023-12-07T04:43:22;18.92;;;15.50;;
53710;SDS011;39605;52.704;6.752;2023-12-07T04:45:48;19.10;;;15.70;;
53710;SDS011;39605;52.704;6.752;2023-12-07T04:48:14;21.30;;;15.73;;
53710;SDS011;39605;52.704;6.752;2023-12-07T04:50:40;18.90;;;16.38;;
53710;SDS011;39605;52.704;6.752;2023-12-07T04:53:06;18.67;;;15.25;;
53710;SDS011;39605;52.704;6.752;2023-12-07T04:55:32;20.48;;;15.50;;
53710;SDS011;39605;52.704;6.752;2023-12-07T04:57:58;17.95;;;15.18;;
53710;SDS011;39605;52.704;6.752;2023-12-07T05:00:24;19.45;;;14.13;;
53710;SDS011;39605;52.704;6.752;2023-12-07T05:02:50;21.88;;;15.30;;
53710;SDS011;39605;52.704;6.752;2023-12-07T05:05:16;20.63;;;15.70;;
53710;SDS011;39605;52.704;6.752;2023-12-07T05:07:42;20.25;;;15.43;;
53710;SDS011;39605;52.704;6.752;2023-12-07T05:10:09;18.60;;;14.27;;
53710;SDS011;39605;52.704;6.752;2023-12-07T05:12:35;20.90;;;15.20;;
53710;SDS011;39605;52.704;6.752;2023-12-07T05:15:01;19.67;;;15.48;;
53710;SDS011;39605;52.704;6.752;2023-12-07T05:17:29;21.35;;;16.35;;
53710;SDS011;39605;52.704;6.752;2023-12-07T05:19:58;21.67;;;15.90;;
53710;SDS011;39605;52.704;6.752;2023-12-07T05:22:24;21.58;;;15.55;;
53710;SDS011;39605;52.704;6.752;2023-12-07T05:24:50;23.02;;;16.92;;
53710;SDS011;39605;52.704;6.752;2023-12-07T05:27:16;20.00;;;16.88;;
53710;SDS011;39605;52.704;6.752;2023-12-07T05:29:42;21.27;;;16.15;;
53710;SDS011;39605;52.704;6.752;2023-12-07T05:32:08;22.95;;;17.45;;
53710;SDS011;39605;52.704;6.752;2023-12-07T05:34:34;19.98;;;16.90;;
53710;SDS011;39605;52.704;6.752;2023-12-07T05:37:01;23.30;;;17.15;;
53710;SDS011;39605;52.704;6.752;2023-12-07T05:39:27;21.90;;;16.80;;
53710;SDS011;39605;52.704;6.752;2023-12-07T05:41:53;23.98;;;17.23;;
53710;SDS011;39605;52.704;6.752;2023-12-07T05:44:19;24.52;;;18.00;;
53710;SDS011;39605;52.704;6.752;2023-12-07T05:46:47;25.10;;;18.65;;
53710;SDS011;39605;52.704;6.752;2023-12-07T05:49:13;23.40;;;17.95;;
53710;SDS011;39605;52.704;6.752;2023-12-07T05:51:39;23.48;;;17.83;;
53710;SDS011;39605;52.704;6.752;2023-12-07T05:54:06;21.35;;;16.25;;
53710;SDS011;39605;52.704;6.752;2023-12-07T05:56:32;24.15;;;19.73;;
53710;SDS011;39605;52.704;6.752;2023-12-07T05:58:58;27.60;;;19.63;;
53710;SDS011;39605;52.704;6.752;2023-12-07T06:01:24;23.15;;;19.05;;
53710;SDS011;39605;52.704;6.752;2023-12-07T06:03:50;26.15;;;20.13;;
53710;SDS011;39605;52.704;6.752;2023-12-07T06:06:16;24.25;;;18.92;;
53710;SDS011;39605;52.704;6.752;2023-12-07T06:08:42;26.15;;;19.52;;
53710;SDS011;39605;52.704;6.752;2023-12-07T06:11:09;29.98;;;20.27;;
53710;SDS011;39605;52.704;6.752;2023-12-07T06:13:35;25.75;;;19.33;;
53710;SDS011;39605;52.704;6.752;2023-12-07T06:16:01;28.85;;;21.15;;
53710;SDS011;39605;52.704;6.752;2023-12-07T06:18:28;30.02;;;20.52;;
53710;SDS011;39605;52.704;6.752;2023-12-07T06:20:54;25.05;;;19.20;;
53710;SDS011;39605;52.704;6.752;2023-12-07T06:23:20;26.73;;;20.33;;
53710;SDS011;39605;52.704;6.752;2023-12-07T06:25:46;25.85;;;19.85;;
53710;SDS011;39605;52.704;6.752;2023-12-07T06:28:12;23.58;;;19.05;;
53710;SDS011;39605;52.704;6.752;2023-12-07T06:30:38;28.73;;;21.42;;
53710;SDS011;39605;52.704;6.752;2023-12-07T06:33:04;30.05;;;21.05;;
53710;SDS011;39605;52.704;6.752;2023-12-07T06:35:30;25.50;;;19.45;;
53710;SDS011;39605;52.704;6.752;2023-12-07T06:37:56;24.67;;;19.35;;
53710;SDS011;39605;52.704;6.752;2023-12-07T06:40:22;27.70;;;21.02;;
53710;SDS011;39605;52.704;6.752;2023-12-07T06:42:49;30.25;;;21.30;;
53710;SDS011;39605;52.704;6.752;2023-12-07T06:45:15;28.73;;;22.33;;
53710;SDS011;39605;52.704;6.752;2023-12-07T06:47:41;23.90;;;19.52;;
53710;SDS011;39605;52.704;6.752;2023-12-07T06:50:07;27.85;;;19.88;;
53710;SDS011;39605;52.704;6.752;2023-12-07T06:52:35;24.25;;;19.85;;
53710;SDS011;39605;52.704;6.752;2023-12-07T06:55:01;24.80;;;19.67;;
53710;SDS011;39605;52.704;6.752;2023-12-07T06:57:27;24.42;;;20.45;;
53710;SDS011;39605;52.704;6.752;2023-12-07T06:59:53;27.73;;;20.83;;
53710;SDS011;39605;52.704;6.752;2023-12-07T07:02:19;25.15;;;20.38;;
53710;SDS011;39605;52.704;6.752;2023-12-07T07:04:46;29.10;;;21.75;;
53710;SDS011;39605;52.704;6.752;2023-12-07T07:07:14;30.58;;;22.42;;
53710;SDS011;39605;52.704;6.752;2023-12-07T07:09:40;28.05;;;21.55;;
53710;SDS011;39605;52.704;6.752;2023-12-07T07:12:06;23.95;;;19.42;;
53710;SDS011;39605;52.704;6.752;2023-12-07T07:14:32;31.80;;;22.08;;
53710;SDS011;39605;52.704;6.752;2023-12-07T07:16:59;27.85;;;21.67;;
53710;SDS011;39605;52.704;6.752;2023-12-07T07:19:25;28.42;;;20.73;;
53710;SDS011;39605;52.704;6.752;2023-12-07T07:21:51;29.20;;;21.70;;
53710;SDS011;39605;52.704;6.752;2023-12-07T07:24:17;27.15;;;21.55;;
53710;SDS011;39605;52.704;6.752;2023-12-07T07:26:43;26.38;;;21.20;;
53710;SDS011;39605;52.704;6.752;2023-12-07T07:29:09;24.20;;;20.55;;
53710;SDS011;39605;52.704;6.752;2023-12-07T07:31:35;27.02;;;20.52;;
53710;SDS011;39605;52.704;6.752;2023-12-07T07:34:01;28.58;;;21.65;;
53710;SDS011;39605;52.704;6.752;2023-12-07T07:36:28;26.65;;;20.40;;
53710;SDS011;39605;52.704;6.752;2023-12-07T07:38:54;25.92;;;21.70;;
53710;SDS011;39605;52.704;6.752;2023-12-07T07:41:21;24.75;;;20.60;;
53710;SDS011;39605;52.704;6.752;2023-12-07T07:43:47;26.88;;;20.05;;
53710;SDS011;39605;52.704;6.752;2023-12-07T07:46:13;26.55;;;20.55;;
53710;SDS011;39605;52.704;6.752;2023-12-07T07:48:39;26.70;;;21.30;;
53710;SDS011;39605;52.704;6.752;2023-12-07T07:51:05;30.45;;;22.25;;
53710;SDS011;39605;52.704;6.752;2023-12-07T07:53:32;33.90;;;23.27;;
53710;SDS011;39605;52.704;6.752;2023-12-07T07:55:58;32.00;;;24.48;;
53710;SDS011;39605;52.704;6.752;2023-12-07T07:58:24;29.23;;;23.13;;
53710;SDS011;39605;52.704;6.752;2023-12-07T08:00:50;36.30;;;24.73;;
53710;SDS011;39605;52.704;6.752;2023-12-07T08:03:17;33.45;;;24.92;;
53710;SDS011;39605;52.704;6.752;2023-12-07T08:05:43;33.95;;;24.60;;
53710;SDS011;39605;52.704;6.752;2023-12-07T08:08:09;32.88;;;25.00;;
53710;SDS011;39605;52.704;6.752;2023-12-07T08:10:36;30.83;;;24.63;;
53710;SDS011;39605;52.704;6.752;2023-12-07T08:13:04;32.50;;;24.88;;
53710;SDS011;39605;52.704;6.752;2023-12-07T08:15:32;34.58;;;24.40;;
53710;SDS011;39605;52.704;6.752;2023-12-07T08:17:58;34.97;;;25.25;;
53710;SDS011;39605;52.704;6.752;2023-12-07T08:20:24;31.60;;;23.92;;
53710;SDS011;39605;52.704;6.752;2023-12-07T08:22:51;33.40;;;24.95;;
53710;SDS011;39605;52.704;6.752;2023-12-07T08:25:17;33.20;;;25.30;;
53710;SDS011;39605;52.704;6.752;2023-12-07T08:27:43;32.90;;;25.13;;
53710;SDS011;39605;52.704;6.752;2023-12-07T08:30:11;37.53;;;27.02;;
53710;SDS011;39605;52.704;6.752;2023-12-07T08:32:37;54.45;;;25.85;;
53710;SDS011;39605;52.704;6.752;2023-12-07T08:35:04;55.60;;;24.33;;
53710;SDS011;39605;52.704;6.752;2023-12-07T08:37:33;85.43;;;26.58;;
53710;SDS011;39605;52.704;6.752;2023-12-07T08:39:59;79.20;;;25.70;;
53710;SDS011;39605;52.704;6.752;2023-12-07T08:42:25;42.38;;;23.55;;
53710;SDS011;39605;52.704;6.752;2023-12-07T08:44:52;65.22;;;25.38;;
53710;SDS011;39605;52.704;6.752;2023-12-07T08:47:18;46.78;;;23.15;;
53710;SDS011;39605;52.704;6.752;2023-12-07T08:49:44;67.57;;;20.65;;
53710;SDS011;39605;52.704;6.752;2023-12-07T08:52:10;73.88;;;21.35;;
53710;SDS011;39605;52.704;6.752;2023-12-07T08:54:36;102.43;;;22.80;;
53710;SDS011;39605;52.704;6.752;2023-12-07T08:57:03;62.33;;;20.92;;
53710;SDS011;39605;52.704;6.752;2023-12-07T08:59:29;71.35;;;19.52;;
53710;SDS011;39605;52.704;6.752;2023-12-07T09:01:58;71.70;;;20.23;;
53710;SDS011;39605;52.704;6.752;2023-12-07T09:04:24;73.15;;;20.10;;
53710;SDS011;39605;52.704;6.752;2023-12-07T09:06:50;56.08;;;20.10;;
53710;SDS011;39605;52.704;6.752;2023-12-07T09:09:16;52.80;;;20.48;;
53710;SDS011;39605;52.704;6.752;2023-12-07T09:11:42;69.80;;;17.88;;
53710;SDS011;39605;52.704;6.752;2023-12-07T09:14:08;123.70;;;21.55;;
53710;SDS011;39605;52.704;6.752;2023-12-07T09:16:34;83.65;;;22.42;;
53710;SDS011;39605;52.704;6.752;2023-12-07T09:19:00;302.63;;;36.10;;
53710;SDS011;39605;52.704;6.752;2023-12-07T09:21:27;261.63;;;33.42;;
53710;SDS011;39605;52.704;6.752;2023-12-07T09:23:53;165.40;;;29.02;;
53710;SDS011;39605;52.704;6.752;2023-12-07T09:26:19;173.93;;;27.55;;
53710;SDS011;39605;52.704;6.752;2023-12-07T09:28:46;142.73;;;25.98;;
53710;SDS011;39605;52.704;6.752;2023-12-07T09:31:12;79.82;;;24.35;;
53710;SDS011;39605;52.704;6.752;2023-12-07T09:33:38;105.60;;;24.90;;
53710;SDS011;39605;52.704;6.752;2023-12-07T09:36:04;87.88;;;25.33;;
53710;SDS011;39605;52.704;6.752;2023-12-07T09:38:34;116.65;;;24.80;;
53710;SDS011;39605;52.704;6.752;2023-12-07T09:41:02;76.30;;;24.63;;
53710;SDS011;39605;52.704;6.752;2023-12-07T09:43:28;84.43;;;24.02;;
53710;SDS011;39605;52.704;6.752;2023-12-07T09:45:54;98.05;;;25.38;;
53710;SDS011;39605;52.704;6.752;2023-12-07T09:48:21;63.53;;;22.85;;
53710;SDS011;39605;52.704;6.752;2023-12-07T09:50:47;42.20;;;23.88;;
53710;SDS011;39605;52.704;6.752;2023-12-07T09:53:13;125.30;;;25.60;;
53710;SDS011;39605;52.704;6.752;2023-12-07T09:55:39;87.18;;;24.73;;
53710;SDS011;39605;52.704;6.752;2023-12-07T09:58:05;63.88;;;24.90;;
53710;SDS011;39605;52.704;6.752;2023-12-07T10:00:32;67.40;;;24.73;;
53710;SDS011;39605;52.704;6.752;2023-12-07T10:02:58;62.40;;;23.90;;
53710;SDS011;39605;52.704;6.752;2023-12-07T10:05:24;60.38;;;23.52;;
53710;SDS011;39605;52.704;6.752;2023-12-07T10:07:50;56.13;;;23.10;;
53710;SDS011;39605;52.704;6.752;2023-12-07T10:10:17;92.70;;;24.85;;
53710;SDS011;39605;52.704;6.752;2023-12-07T10:12:44;51.25;;;25.77;;
53710;SDS011;39605;52.704;6.752;2023-12-07T10:15:15;47.47;;;24.13;;
53710;SDS011;39605;52.704;6.752;2023-12-07T10:20:14;93.53;;;26.70;;
53710;SDS011;39605;52.704;6.752;2023-12-07T10:22:40;93.80;;;26.23;;
53710;SDS011;39605;52.704;6.752;2023-12-07T10:25:07;70.97;;;25.23;;
53710;SDS011;39605;52.704;6.752;2023-12-07T10:27:33;54.70;;;24.70;;
53710;SDS011;39605;52.704;6.752;2023-12-07T10:30:00;71.38;;;25.88;;
53710;SDS011;39605;52.704;6.752;2023-12-07T10:32:26;151.88;;;28.80;;
53710;SDS011;39605;52.704;6.752;2023-12-07T10:34:53;105.90;;;25.33;;
53710;SDS011;39605;52.704;6.752;2023-12-07T10:37:21;183.15;;;28.58;;
53710;SDS011;39605;52.704;6.752;2023-12-07T10:39:48;94.25;;;25.45;;
53710;SDS011;39605;52.704;6.752;2023-12-07T10:42:14;88.57;;;24.45;;
53710;SDS011;39605;52.704;6.752;2023-12-07T10:44:42;55.20;;;25.10;;
53710;SDS011;39605;52.704;6.752;2023-12-07T10:47:11;134.98;;;29.13;;
53710;SDS011;39605;52.704;6.752;2023-12-07T10:49:39;95.63;;;26.40;;
53710;SDS011;39605;52.704;6.752;2023-12-07T10:52:06;38.97;;;23.40;;
53710;SDS011;39605;52.704;6.752;2023-12-07T10:57:17;138.73;;;26.15;;
53710;SDS011;39605;52.704;6.752;2023-12-07T10:59:45;67.80;;;23.30;;
53710;SDS011;39605;52.704;6.752;2023-12-07T11:02:13;139.07;;;27.20;;
53710;SDS011;39605;52.704;6.752;2023-12-07T11:04:40;104.90;;;25.50;;
53710;SDS011;39605;52.704;6.752;2023-12-07T11:07:09;59.47;;;24.05;;
53710;SDS011;39605;52.704;6.752;2023-12-07T11:09:38;89.65;;;26.00;;
53710;SDS011;39605;52.704;6.752;2023-12-07T11:12:09;93.80;;;25.23;;
53710;SDS011;39605;52.704;6.752;2023-12-07T11:14:37;105.43;;;26.27;;
53710;SDS011;39605;52.704;6.752;2023-12-07T11:17:05;85.05;;;27.27;;
53710;SDS011;39605;52.704;6.752;2023-12-07T11:22:07;77.22;;;27.23;;
53710;SDS011;39605;52.704;6.752;2023-12-07T11:24:35;52.35;;;27.20;;
53710;SDS011;39605;52.704;6.752;2023-12-07T11:27:01;139.63;;;33.63;;
53710;SDS011;39605;52.704;6.752;2023-12-07T11:29:31;80.90;;;29.27;;
53710;SDS011;39605;52.704;6.752;2023-12-07T11:32:01;71.28;;;29.10;;
53710;SDS011;39605;52.704;6.752;2023-12-07T11:34:41;56.28;;;26.70;;
53710;SDS011;39605;52.704;6.752;2023-12-07T11:37:08;75.63;;;27.88;;
53710;SDS011;39605;52.704;6.752;2023-12-07T11:39:35;70.68;;;29.75;;
53710;SDS011;39605;52.704;6.752;2023-12-07T11:42:06;94.30;;;30.48;;
53710;SDS011;39605;52.704;6.752;2023-12-07T11:44:33;98.95;;;30.60;;
53710;SDS011;39605;52.704;6.752;2023-12-07T11:47:03;93.70;;;30.60;;
53710;SDS011;39605;52.704;6.752;2023-12-07T11:49:29;108.72;;;34.72;;
53710;SDS011;39605;52.704;6.752;2023-12-07T11:51:56;156.15;;;39.35;;
53710;SDS011;39605;52.704;6.752;2023-12-07T11:54:23;73.45;;;31.42;;
53710;SDS011;39605;52.704;6.752;2023-12-07T11:56:55;111.22;;;32.60;;
53710;SDS011;39605;52.704;6.752;2023-12-07T11:59:22;91.28;;;33.08;;
53710;SDS011;39605;52.704;6.752;2023-12-07T12:01:51;127.63;;;35.20;;
53710;SDS011;39605;52.704;6.752;2023-12-07T12:04:17;91.20;;;33.85;;
53710;SDS011;39605;52.704;6.752;2023-12-07T12:06:44;73.43;;;32.95;;
53710;SDS011;39605;52.704;6.752;2023-12-07T12:09:13;78.43;;;35.05;;
53710;SDS011;39605;52.704;6.752;2023-12-07T12:11:45;72.63;;;32.58;;
53710;SDS011;39605;52.704;6.752;2023-12-07T12:14:13;105.00;;;31.23;;
53710;SDS011;39605;52.704;6.752;2023-12-07T12:16:39;82.47;;;33.35;;
53710;SDS011;39605;52.704;6.752;2023-12-07T12:19:05;71.55;;;33.25;;
53710;SDS011;39605;52.704;6.752;2023-12-07T12:21:38;73.93;;;34.30;;
53710;SDS011;39605;52.704;6.752;2023-12-07T12:24:07;80.45;;;34.47;;
53710;SDS011;39605;52.704;6.752;2023-12-07T12:26:34;81.30;;;36.17;;
53710;SDS011;39605;52.704;6.752;2023-12-07T12:29:01;84.82;;;35.95;;
53710;SDS011;39605;52.704;6.752;2023-12-07T12:31:28;85.63;;;36.30;;
53710;SDS011;39605;52.704;6.752;2023-12-07T12:33:54;91.05;;;38.55;;
53710;SDS011;39605;52.704;6.752;2023-12-07T12:36:20;89.55;;;34.72;;
53710;SDS011;39605;52.704;6.752;2023-12-07T12:38:48;84.30;;;35.30;;
53710;SDS011;39605;52.704;6.752;2023-12-07T12:41:21;82.88;;;31.75;;
53710;SDS011;39605;52.704;6.752;2023-12-07T12:43:48;86.65;;;35.47;;
53710;SDS011;39605;52.704;6.752;2023-12-07T12:46:15;85.25;;;38.67;;
53710;SDS011;39605;52.704;6.752;2023-12-07T12:48:54;92.05;;;38.65;;
53710;SDS011;39605;52.704;6.752;2023-12-07T12:51:21;94.40;;;39.47;;
53710;SDS011;39605;52.704;6.752;2023-12-07T12:53:50;120.25;;;43.80;;
53710;SDS011;39605;52.704;6.752;2023-12-07T12:56:16;99.43;;;40.53;;
53710;SDS011;39605;52.704;6.752;2023-12-07T12:58:44;92.45;;;38.75;;
53710;SDS011;39605;52.704;6.752;2023-12-07T13:01:10;86.72;;;33.40;;
53710;SDS011;39605;52.704;6.752;2023-12-07T13:03:36;87.95;;;35.95;;
53710;SDS011;39605;52.704;6.752;2023-12-07T13:06:02;101.20;;;41.55;;
53710;SDS011;39605;52.704;6.752;2023-12-07T13:08:28;92.25;;;39.58;;
53710;SDS011;39605;52.704;6.752;2023-12-07T13:10:55;103.90;;;40.67;;
53710;SDS011;39605;52.704;6.752;2023-12-07T13:13:21;98.88;;;41.47;;
53710;SDS011;39605;52.704;6.752;2023-12-07T13:15:47;100.88;;;42.53;;
53710;SDS011;39605;52.704;6.752;2023-12-07T13:18:13;89.65;;;40.35;;
53710;SDS011;39605;52.704;6.752;2023-12-07T13:20:39;92.90;;;39.42;;
53710;SDS011;39605;52.704;6.752;2023-12-07T13:23:05;95.60;;;39.47;;
53710;SDS011;39605;52.704;6.752;2023-12-07T13:25:31;77.65;;;33.08;;
53710;SDS011;39605;52.704;6.752;2023-12-07T13:27:58;91.47;;;39.35;;
53710;SDS011;39605;52.704;6.752;2023-12-07T13:30:24;91.28;;;38.63;;
53710;SDS011;39605;52.704;6.752;2023-12-07T13:32:54;88.47;;;38.10;;
53710;SDS011;39605;52.704;6.752;2023-12-07T13:35:20;94.18;;;41.10;;
53710;SDS011;39605;52.704;6.752;2023-12-07T13:37:47;83.13;;;39.30;;
53710;SDS011;39605;52.704;6.752;2023-12-07T13:40:13;85.25;;;40.53;;
53710;SDS011;39605;52.704;6.752;2023-12-07T13:42:40;93.35;;;40.13;;
53710;SDS011;39605;52.704;6.752;2023-12-07T13:45:06;87.57;;;39.85;;
53710;SDS011;39605;52.704;6.752;2023-12-07T13:47:33;88.35;;;42.60;;
53710;SDS011;39605;52.704;6.752;2023-12-07T13:50:03;89.78;;;42.35;;
53710;SDS011;39605;52.704;6.752;2023-12-07T13:52:30;83.10;;;38.78;;
53710;SDS011;39605;52.704;6.752;2023-12-07T13:54:56;86.18;;;40.10;;
53710;SDS011;39605;52.704;6.752;2023-12-07T13:57:23;88.45;;;40.67;;
53710;SDS011;39605;52.704;6.752;2023-12-07T13:59:49;79.47;;;36.50;;
53710;SDS011;39605;52.704;6.752;2023-12-07T14:02:16;89.07;;;40.78;;
53710;SDS011;39605;52.704;6.752;2023-12-07T14:04:42;79.80;;;40.33;;
53710;SDS011;39605;52.704;6.752;2023-12-07T14:09:35;82.78;;;40.63;;
53710;SDS011;39605;52.704;6.752;2023-12-07T14:12:02;82.70;;;39.63;;
53710;SDS011;39605;52.704;6.752;2023-12-07T14:14:28;89.72;;;39.35;;
53710;SDS011;39605;52.704;6.752;2023-12-07T14:16:55;82.35;;;40.95;;
53710;SDS011;39605;52.704;6.752;2023-12-07T14:19:21;85.45;;;41.33;;
53710;SDS011;39605;52.704;6.752;2023-12-07T14:21:47;81.47;;;38.67;;
53710;SDS011;39605;52.704;6.752;2023-12-07T14:24:13;74.13;;;37.10;;
53710;SDS011;39605;52.704;6.752;2023-12-07T14:26:42;78.72;;;39.90;;
53710;SDS011;39605;52.704;6.752;2023-12-07T14:29:08;75.45;;;38.10;;
53710;SDS011;39605;52.704;6.752;2023-12-07T14:31:40;80.20;;;40.85;;